sensor_id;sensor_type;location;lat;lon;timestamp;pressure;altitude;pressure_sealevel;temperature;humidity
61018;BME280;48171;51.550;5.434;2023-02-28T00:02:12;103116.91;;;-0.08;82.89
61018;BME280;48171;51.550;5.434;2023-02-28T00:04:37;103113.31;;;-0.10;82.99
61018;BME280;48171;51.550;5.434;2023-02-28T00:07:02;103108.56;;;-0.15;83.09
61018;BME280;48171;51.550;5.434;2023-02-28T00:09:28;103120.09;;;-0.12;83.35
61018;BME280;48171;51.550;5.434;2023-02-28T00:11:53;103120.97;;;-0.11;83.52
61018;BME280;48171;51.550;5.434;2023-02-28T00:14:18;103126.19;;;-0.11;83.68
61018;BME280;48171;51.550;5.434;2023-02-28T00:16:43;103121.75;;;-0.12;83.88
61018;BME280;48171;51.550;5.434;2023-02-28T00:19:09;103106.53;;;-0.19;83.50
61018;BME280;48171;51.550;5.434;2023-02-28T00:21:34;103106.66;;;-0.18;83.61
61018;BME280;48171;51.550;5.434;2023-02-28T00:24:00;103111.84;;;-0.18;83.65
61018;BME280;48171;51.550;5.434;2023-02-28T00:26:25;103113.63;;;-0.17;83.62
61018;BME280;48171;51.550;5.434;2023-02-28T00:28:52;103112.63;;;-0.19;83.52
61018;BME280;48171;51.550;5.434;2023-02-28T00:31:17;103106.28;;;-0.23;83.77
61018;BME280;48171;51.550;5.434;2023-02-28T00:33:43;103118.72;;;-0.18;83.39
61018;BME280;48171;51.550;5.434;2023-02-28T00:36:10;103109.00;;;-0.21;83.73
61018;BME280;48171;51.550;5.434;2023-02-28T00:38:37;103102.66;;;-0.25;83.49
61018;BME280;48171;51.550;5.434;2023-02-28T00:41:02;103110.47;;;-0.25;83.96
61018;BME280;48171;51.550;5.434;2023-02-28T00:43:30;103114.75;;;-0.25;84.13
61018;BME280;48171;51.550;5.434;2023-02-28T00:45:55;103108.56;;;-0.27;83.80
61018;BME280;48171;51.550;5.434;2023-02-28T00:48:21;103107.78;;;-0.26;83.87
61018;BME280;48171;51.550;5.434;2023-02-28T00:50:48;103119.84;;;-0.27;83.71
61018;BME280;48171;51.550;5.434;2023-02-28T00:53:14;103108.34;;;-0.30;83.94
61018;BME280;48171;51.550;5.434;2023-02-28T00:55:39;103107.53;;;-0.29;83.74
61018;BME280;48171;51.550;5.434;2023-02-28T00:58:04;103108.22;;;-0.32;84.10
61018;BME280;48171;51.550;5.434;2023-02-28T01:00:30;103102.66;;;-0.36;84.02
61018;BME280;48171;51.550;5.434;2023-02-28T01:02:56;103114.88;;;-0.35;84.32
61018;BME280;48171;51.550;5.434;2023-02-28T01:05:21;103113.06;;;-0.36;84.50
61018;BME280;48171;51.550;5.434;2023-02-28T01:07:46;103103.22;;;-0.41;84.32
61018;BME280;48171;51.550;5.434;2023-02-28T01:10:11;103116.34;;;-0.39;84.56
61018;BME280;48171;51.550;5.434;2023-02-28T01:12:37;103125.94;;;-0.38;84.37
61018;BME280;48171;51.550;5.434;2023-02-28T01:15:03;103124.25;;;-0.37;84.71
61018;BME280;48171;51.550;5.434;2023-02-28T01:17:28;103117.91;;;-0.41;84.53
61018;BME280;48171;51.550;5.434;2023-02-28T01:19:54;103119.75;;;-0.40;84.66
61018;BME280;48171;51.550;5.434;2023-02-28T01:22:20;103126.72;;;-0.39;84.54
61018;BME280;48171;51.550;5.434;2023-02-28T01:24:46;103123.13;;;-0.41;84.36
61018;BME280;48171;51.550;5.434;2023-02-28T01:27:11;103123.91;;;-0.42;84.69
61018;BME280;48171;51.550;5.434;2023-02-28T01:29:36;103129.00;;;-0.44;84.57
61018;BME280;48171;51.550;5.434;2023-02-28T01:32:02;103128.19;;;-0.43;84.80
61018;BME280;48171;51.550;5.434;2023-02-28T01:34:27;103130.56;;;-0.46;84.76
61018;BME280;48171;51.550;5.434;2023-02-28T01:36:52;103129.56;;;-0.48;84.93
61018;BME280;48171;51.550;5.434;2023-02-28T01:39:18;103129.00;;;-0.44;85.11
61018;BME280;48171;51.550;5.434;2023-02-28T01:41:43;103135.06;;;-0.43;84.94
61018;BME280;48171;51.550;5.434;2023-02-28T01:47:11;103113.53;;;-0.42;84.75
61018;BME280;48171;51.550;5.434;2023-02-28T01:49:37;103112.59;;;-0.43;85.27
61018;BME280;48171;51.550;5.434;2023-02-28T01:52:03;103115.31;;;-0.41;85.31
61018;BME280;48171;51.550;5.434;2023-02-28T01:54:31;103108.34;;;-0.42;85.13
61018;BME280;48171;51.550;5.434;2023-02-28T01:57:01;103102.13;;;-0.44;85.13
61018;BME280;48171;51.550;5.434;2023-02-28T01:59:48;103096.13;;;-0.43;85.23
61018;BME280;48171;51.550;5.434;2023-02-28T02:02:17;103103.03;;;-0.44;85.35
61018;BME280;48171;51.550;5.434;2023-02-28T02:05:03;103098.72;;;-0.43;85.18
61018;BME280;48171;51.550;5.434;2023-02-28T02:07:35;103101.31;;;-0.43;84.90
61018;BME280;48171;51.550;5.434;2023-02-28T02:10:35;103103.78;;;-0.45;84.78
61018;BME280;48171;51.550;5.434;2023-02-28T02:18:43;103095.34;;;-0.42;85.47
61018;BME280;48171;51.550;5.434;2023-02-28T02:27:03;103090.25;;;-0.41;85.77
61018;BME280;48171;51.550;5.434;2023-02-28T02:33:06;103085.97;;;-0.40;85.64
61018;BME280;48171;51.550;5.434;2023-02-28T02:35:53;103080.53;;;-0.43;85.56
61018;BME280;48171;51.550;5.434;2023-02-28T02:38:36;103096.38;;;-0.40;85.72
61018;BME280;48171;51.550;5.434;2023-02-28T02:41:28;103075.91;;;-0.47;86.03
61018;BME280;48171;51.550;5.434;2023-02-28T02:44:15;103088.66;;;-0.38;86.19
61018;BME280;48171;51.550;5.434;2023-02-28T02:46:45;103087.56;;;-0.42;86.54
61018;BME280;48171;51.550;5.434;2023-02-28T02:49:30;103092.06;;;-0.39;86.61
61018;BME280;48171;51.550;5.434;2023-02-28T02:51:58;103095.69;;;-0.37;86.72
61018;BME280;48171;51.550;5.434;2023-02-28T02:54:33;103090.59;;;-0.36;86.94
61018;BME280;48171;51.550;5.434;2023-02-28T02:57:01;103088.91;;;-0.35;87.18
61018;BME280;48171;51.550;5.434;2023-02-28T02:59:29;103091.97;;;-0.29;86.22
61018;BME280;48171;51.550;5.434;2023-02-28T03:01:59;103093.41;;;-0.33;87.01
61018;BME280;48171;51.550;5.434;2023-02-28T03:04:30;103085.75;;;-0.31;87.14
61018;BME280;48171;51.550;5.434;2023-02-28T03:06:57;103094.34;;;-0.32;87.31
61018;BME280;48171;51.550;5.434;2023-02-28T03:09:23;103094.44;;;-0.31;87.33
61018;BME280;48171;51.550;5.434;2023-02-28T03:11:54;103082.91;;;-0.34;87.29
61018;BME280;48171;51.550;5.434;2023-02-28T03:14:53;103093.09;;;-0.26;86.99
61018;BME280;48171;51.550;5.434;2023-02-28T03:23:01;103083.28;;;-0.18;86.91
61018;BME280;48171;51.550;5.434;2023-02-28T03:25:41;103082.47;;;-0.17;86.46
61018;BME280;48171;51.550;5.434;2023-02-28T03:30:52;103092.16;;;-0.14;86.44
61018;BME280;48171;51.550;5.434;2023-02-28T03:33:31;103088.09;;;-0.11;86.28
61018;BME280;48171;51.550;5.434;2023-02-28T03:36:04;103086.41;;;-0.10;86.46
61018;BME280;48171;51.550;5.434;2023-02-28T03:38:44;103082.34;;;-0.07;85.79
61018;BME280;48171;51.550;5.434;2023-02-28T03:41:21;103091.16;;;-0.05;85.59
61018;BME280;48171;51.550;5.434;2023-02-28T03:43:52;103090.44;;;-0.02;85.19
61018;BME280;48171;51.550;5.434;2023-02-28T03:46:21;103087.06;;;-0.01;85.39
61018;BME280;48171;51.550;5.434;2023-02-28T03:48:56;103090.69;;;0.01;85.68
61018;BME280;48171;51.550;5.434;2023-02-28T03:51:24;103094.31;;;0.03;84.90
61018;BME280;48171;51.550;5.434;2023-02-28T03:53:58;103097.13;;;0.06;85.54
61018;BME280;48171;51.550;5.434;2023-02-28T03:57:47;103097.47;;;0.11;85.70
61018;BME280;48171;51.550;5.434;2023-02-28T03:59:47;103092.25;;;0.11;85.12
61018;BME280;48171;51.550;5.434;2023-02-28T04:02:14;103088.97;;;0.13;84.87
61018;BME280;48171;51.550;5.434;2023-02-28T04:04:40;103099.50;;;0.15;84.86
61018;BME280;48171;51.550;5.434;2023-02-28T04:07:13;103082.31;;;0.17;84.82
61018;BME280;48171;51.550;5.434;2023-02-28T04:09:38;103082.41;;;0.18;84.59
61018;BME280;48171;51.550;5.434;2023-02-28T04:12:04;103083.63;;;0.24;84.19
61018;BME280;48171;51.550;5.434;2023-02-28T04:14:29;103081.16;;;0.25;84.17
61018;BME280;48171;51.550;5.434;2023-02-28T04:16:55;103084.66;;;0.26;84.97
61018;BME280;48171;51.550;5.434;2023-02-28T04:19:20;103090.75;;;0.26;84.39
61018;BME280;48171;51.550;5.434;2023-02-28T04:21:51;103088.25;;;0.28;84.60
61018;BME280;48171;51.550;5.434;2023-02-28T04:24:22;103091.75;;;0.28;84.62
61018;BME280;48171;51.550;5.434;2023-02-28T04:26:50;103095.38;;;0.30;84.42
61018;BME280;48171;51.550;5.434;2023-02-28T04:29:34;103097.19;;;0.31;83.67
61018;BME280;48171;51.550;5.434;2023-02-28T04:32:01;103098.97;;;0.32;84.37
61018;BME280;48171;51.550;5.434;2023-02-28T04:34:29;103090.97;;;0.29;84.26
61018;BME280;48171;51.550;5.434;2023-02-28T04:36:55;103100.03;;;0.34;84.07
61018;BME280;48171;51.550;5.434;2023-02-28T04:39:22;103100.09;;;0.36;84.33
61018;BME280;48171;51.550;5.434;2023-02-28T04:41:47;103105.31;;;0.36;84.14
61018;BME280;48171;51.550;5.434;2023-02-28T04:44:13;103106.44;;;0.39;83.63
61018;BME280;48171;51.550;5.434;2023-02-28T04:46:38;103100.34;;;0.39;83.72
61018;BME280;48171;51.550;5.434;2023-02-28T04:49:03;103107.31;;;0.40;83.79
61018;BME280;48171;51.550;5.434;2023-02-28T04:51:29;103104.72;;;0.40;84.15
61018;BME280;48171;51.550;5.434;2023-02-28T04:53:55;103102.13;;;0.40;83.64
61018;BME280;48171;51.550;5.434;2023-02-28T04:56:20;103103.13;;;0.42;83.84
61018;BME280;48171;51.550;5.434;2023-02-28T04:58:46;103108.44;;;0.44;83.94
61018;BME280;48171;51.550;5.434;2023-02-28T05:03:40;103103.38;;;0.45;83.68
61018;BME280;48171;51.550;5.434;2023-02-28T05:06:06;103114.78;;;0.47;83.61
61018;BME280;48171;51.550;5.434;2023-02-28T05:08:32;103107.88;;;0.48;83.58
61018;BME280;48171;51.550;5.434;2023-02-28T05:10:57;103107.88;;;0.48;84.03
61018;BME280;48171;51.550;5.434;2023-02-28T05:13:23;103107.09;;;0.49;84.25
61018;BME280;48171;51.550;5.434;2023-02-28T05:15:49;103106.28;;;0.50;84.13
61018;BME280;48171;51.550;5.434;2023-02-28T05:18:14;103113.31;;;0.51;84.23
61018;BME280;48171;51.550;5.434;2023-02-28T05:20:39;103112.19;;;0.47;84.22
61018;BME280;48171;51.550;5.434;2023-02-28T05:23:04;103116.50;;;0.47;84.47
61018;BME280;48171;51.550;5.434;2023-02-28T05:25:30;103115.56;;;0.46;84.62
61018;BME280;48171;51.550;5.434;2023-02-28T05:27:55;103117.84;;;0.42;84.58
61018;BME280;48171;51.550;5.434;2023-02-28T05:30:20;103117.16;;;0.44;85.00
61018;BME280;48171;51.550;5.434;2023-02-28T05:32:50;103118.75;;;0.42;84.67
61018;BME280;48171;51.550;5.434;2023-02-28T05:35:15;103115.13;;;0.40;84.75
61018;BME280;48171;51.550;5.434;2023-02-28T05:37:40;103109.72;;;0.37;85.08
61018;BME280;48171;51.550;5.434;2023-02-28T05:40:07;103116.84;;;0.39;85.55
61018;BME280;48171;51.550;5.434;2023-02-28T05:42:35;103120.31;;;0.40;85.56
61018;BME280;48171;51.550;5.434;2023-02-28T05:45:01;103120.31;;;0.40;85.68
61018;BME280;48171;51.550;5.434;2023-02-28T05:47:26;103115.25;;;0.42;85.69
61018;BME280;48171;51.550;5.434;2023-02-28T05:49:51;103124.63;;;0.39;85.81
61018;BME280;48171;51.550;5.434;2023-02-28T05:52:17;103130.97;;;0.43;85.83
61018;BME280;48171;51.550;5.434;2023-02-28T05:54:42;103123.16;;;0.43;85.83
61018;BME280;48171;51.550;5.434;2023-02-28T05:57:07;103108.84;;;0.36;85.70
61018;BME280;48171;51.550;5.434;2023-02-28T05:59:33;103120.56;;;0.43;85.79
61018;BME280;48171;51.550;5.434;2023-02-28T06:01:58;103112.66;;;0.42;85.43
61018;BME280;48171;51.550;5.434;2023-02-28T06:04:23;103125.66;;;0.42;85.61
61018;BME280;48171;51.550;5.434;2023-02-28T06:06:49;103123.03;;;0.42;85.42
61018;BME280;48171;51.550;5.434;2023-02-28T06:09:15;103128.13;;;0.40;85.61
61018;BME280;48171;51.550;5.434;2023-02-28T06:11:41;103129.84;;;0.39;85.77
61018;BME280;48171;51.550;5.434;2023-02-28T06:14:06;103129.84;;;0.39;85.56
61018;BME280;48171;51.550;5.434;2023-02-28T06:16:34;103141.03;;;0.38;85.72
61018;BME280;48171;51.550;5.434;2023-02-28T06:19:01;103143.53;;;0.37;86.00
61018;BME280;48171;51.550;5.434;2023-02-28T06:21:27;103144.53;;;0.39;85.85
61018;BME280;48171;51.550;5.434;2023-02-28T06:23:53;103141.94;;;0.39;85.56
61018;BME280;48171;51.550;5.434;2023-02-28T06:26:19;103142.06;;;0.41;85.71
61018;BME280;48171;51.550;5.434;2023-02-28T06:28:45;103142.06;;;0.41;85.71
61018;BME280;48171;51.550;5.434;2023-02-28T06:31:13;103144.75;;;0.42;86.03
61018;BME280;48171;51.550;5.434;2023-02-28T06:33:39;103156.84;;;0.42;85.71
61018;BME280;48171;51.550;5.434;2023-02-28T06:36:05;103150.06;;;0.44;85.74
61018;BME280;48171;51.550;5.434;2023-02-28T06:38:31;103135.34;;;0.44;85.81
61018;BME280;48171;51.550;5.434;2023-02-28T06:40:57;103139.09;;;0.48;85.82
61018;BME280;48171;51.550;5.434;2023-02-28T06:43:24;103145.41;;;0.51;85.62
61018;BME280;48171;51.550;5.434;2023-02-28T06:45:50;103150.63;;;0.51;85.10
61018;BME280;48171;51.550;5.434;2023-02-28T06:48:16;103146.53;;;0.55;85.62
61018;BME280;48171;51.550;5.434;2023-02-28T06:50:41;103137.03;;;0.55;85.54
61018;BME280;48171;51.550;5.434;2023-02-28T06:53:07;103148.66;;;0.60;85.77
61018;BME280;48171;51.550;5.434;2023-02-28T06:55:32;103135.13;;;0.53;85.35
61018;BME280;48171;51.550;5.434;2023-02-28T06:57:58;103142.44;;;0.58;85.52
61018;BME280;48171;51.550;5.434;2023-02-28T07:00:24;103142.66;;;0.62;85.40
61018;BME280;48171;51.550;5.434;2023-02-28T07:02:50;103155.78;;;0.63;84.76
61018;BME280;48171;51.550;5.434;2023-02-28T07:05:15;103161.00;;;0.63;84.83
61018;BME280;48171;51.550;5.434;2023-02-28T07:07:40;103161.78;;;0.62;84.89
61018;BME280;48171;51.550;5.434;2023-02-28T07:10:12;103147.75;;;0.60;84.53
61018;BME280;48171;51.550;5.434;2023-02-28T07:12:39;103158.16;;;0.60;84.49
61018;BME280;48171;51.550;5.434;2023-02-28T07:15:05;103151.81;;;0.56;84.37
61018;BME280;48171;51.550;5.434;2023-02-28T07:17:31;103161.34;;;0.56;84.17
61018;BME280;48171;51.550;5.434;2023-02-28T07:19:56;103149.91;;;0.54;83.94
61018;BME280;48171;51.550;5.434;2023-02-28T07:22:21;103157.53;;;0.51;83.76
61018;BME280;48171;51.550;5.434;2023-02-28T07:24:47;103175.25;;;0.56;83.49
61018;BME280;48171;51.550;5.434;2023-02-28T07:27:12;103168.25;;;0.55;83.09
61018;BME280;48171;51.550;5.434;2023-02-28T07:29:37;103176.94;;;0.56;82.85
61018;BME280;48171;51.550;5.434;2023-02-28T07:32:03;103173.44;;;0.55;82.51
61018;BME280;48171;51.550;5.434;2023-02-28T07:34:29;103184.28;;;0.62;81.16
61018;BME280;48171;51.550;5.434;2023-02-28T07:36:54;103185.31;;;0.64;80.46
61018;BME280;48171;51.550;5.434;2023-02-28T07:39:21;103183.47;;;0.63;80.21
61018;BME280;48171;51.550;5.434;2023-02-28T07:41:46;103178.97;;;0.60;80.22
61018;BME280;48171;51.550;5.434;2023-02-28T07:44:12;103183.47;;;0.63;80.58
61018;BME280;48171;51.550;5.434;2023-02-28T07:46:38;103189.69;;;0.65;80.25
61018;BME280;48171;51.550;5.434;2023-02-28T07:49:04;103190.75;;;0.67;80.04
61018;BME280;48171;51.550;5.434;2023-02-28T07:51:30;103175.34;;;0.70;80.27
61018;BME280;48171;51.550;5.434;2023-02-28T07:53:56;103184.25;;;0.73;80.52
61018;BME280;48171;51.550;5.434;2023-02-28T07:56:22;103188.06;;;0.78;79.87
61018;BME280;48171;51.550;5.434;2023-02-28T07:58:47;103192.69;;;0.83;80.48
61018;BME280;48171;51.550;5.434;2023-02-28T08:01:12;103186.25;;;0.89;80.11
61018;BME280;48171;51.550;5.434;2023-02-28T08:03:38;103195.50;;;0.97;78.74
61018;BME280;48171;51.550;5.434;2023-02-28T08:06:05;103196.03;;;1.05;78.57
61018;BME280;48171;51.550;5.434;2023-02-28T08:08:32;103193.16;;;1.14;78.31
61018;BME280;48171;51.550;5.434;2023-02-28T08:11:02;103194.47;;;1.20;76.38
61018;BME280;48171;51.550;5.434;2023-02-28T08:13:29;103189.59;;;1.25;76.32
61018;BME280;48171;51.550;5.434;2023-02-28T08:15:54;103189.69;;;1.27;73.77
61018;BME280;48171;51.550;5.434;2023-02-28T08:18:21;103194.31;;;1.31;74.55
61018;BME280;48171;51.550;5.434;2023-02-28T08:20:46;103198.63;;;1.30;74.06
61018;BME280;48171;51.550;5.434;2023-02-28T08:23:13;103189.94;;;1.30;71.40
61018;BME280;48171;51.550;5.434;2023-02-28T08:25:39;103198.03;;;1.34;69.09
61018;BME280;48171;51.550;5.434;2023-02-28T08:28:04;103193.53;;;1.32;69.84
61018;BME280;48171;51.550;5.434;2023-02-28T08:30:30;103193.66;;;1.33;69.81
61018;BME280;48171;51.550;5.434;2023-02-28T08:32:55;103184.72;;;1.30;68.19
61018;BME280;48171;51.550;5.434;2023-02-28T08:35:21;103200.47;;;1.31;67.60
61018;BME280;48171;51.550;5.434;2023-02-28T08:37:50;103192.53;;;1.30;67.68
61018;BME280;48171;51.550;5.434;2023-02-28T08:40:16;103194.22;;;1.29;68.31
61018;BME280;48171;51.550;5.434;2023-02-28T08:42:46;103187.31;;;1.30;67.91
61018;BME280;48171;51.550;5.434;2023-02-28T08:45:12;103187.31;;;1.30;68.71
61018;BME280;48171;51.550;5.434;2023-02-28T08:47:37;103182.91;;;1.29;68.88
61018;BME280;48171;51.550;5.434;2023-02-28T08:50:03;103186.50;;;1.31;66.54
61018;BME280;48171;51.550;5.434;2023-02-28T08:52:29;103176.78;;;1.28;66.90
61018;BME280;48171;51.550;5.434;2023-02-28T08:54:54;103185.84;;;1.33;66.21
61018;BME280;48171;51.550;5.434;2023-02-28T08:57:20;103187.63;;;1.34;67.52
61018;BME280;48171;51.550;5.434;2023-02-28T08:59:45;103185.25;;;1.37;67.69
61018;BME280;48171;51.550;5.434;2023-02-28T09:02:14;103182.72;;;1.39;65.88
61018;BME280;48171;51.550;5.434;2023-02-28T09:04:40;103187.25;;;1.42;67.82
61018;BME280;48171;51.550;5.434;2023-02-28T09:07:05;103194.25;;;1.43;64.41
61018;BME280;48171;51.550;5.434;2023-02-28T09:09:30;103191.78;;;1.44;65.47
61018;BME280;48171;51.550;5.434;2023-02-28T09:11:56;103186.75;;;1.47;64.41
61018;BME280;48171;51.550;5.434;2023-02-28T09:14:21;103192.97;;;1.49;62.46
61018;BME280;48171;51.550;5.434;2023-02-28T09:16:47;103192.38;;;1.53;63.19
61018;BME280;48171;51.550;5.434;2023-02-28T09:19:12;103189.88;;;1.55;62.01
61018;BME280;48171;51.550;5.434;2023-02-28T09:21:38;103190.88;;;1.57;59.80
61018;BME280;48171;51.550;5.434;2023-02-28T09:24:04;103187.28;;;1.55;58.42
61018;BME280;48171;51.550;5.434;2023-02-28T09:26:29;103189.28;;;1.59;58.95
61018;BME280;48171;51.550;5.434;2023-02-28T09:28:55;103185.78;;;1.58;59.53
61018;BME280;48171;51.550;5.434;2023-02-28T09:31:24;103192.19;;;1.64;59.40
61018;BME280;48171;51.550;5.434;2023-02-28T09:33:52;103191.53;;;1.66;57.42
61018;BME280;48171;51.550;5.434;2023-02-28T09:36:18;103197.63;;;1.67;57.70
61018;BME280;48171;51.550;5.434;2023-02-28T09:38:44;103195.13;;;1.68;57.48
61018;BME280;48171;51.550;5.434;2023-02-28T09:41:16;103192.53;;;1.68;57.45
61018;BME280;48171;51.550;5.434;2023-02-28T09:43:45;103191.03;;;1.72;57.33
61018;BME280;48171;51.550;5.434;2023-02-28T09:49:02;103193.84;;;1.75;56.07
61018;BME280;48171;51.550;5.434;2023-02-28T09:51:45;103187.03;;;1.77;56.49
61018;BME280;48171;51.550;5.434;2023-02-28T09:54:17;103191.63;;;1.81;56.36
61018;BME280;48171;51.550;5.434;2023-02-28T09:56:49;103181.44;;;1.84;57.32
61018;BME280;48171;51.550;5.434;2023-02-28T10:02:21;103178.63;;;1.94;58.59
61018;BME280;48171;51.550;5.434;2023-02-28T10:05:11;103173.59;;;1.97;57.15
61018;BME280;48171;51.550;5.434;2023-02-28T10:07:45;103173.00;;;2.02;59.03
61018;BME280;48171;51.550;5.434;2023-02-28T10:10:30;103168.19;;;2.08;58.61
61018;BME280;48171;51.550;5.434;2023-02-28T10:12:59;103173.72;;;2.12;56.73
61018;BME280;48171;51.550;5.434;2023-02-28T10:15:29;103175.72;;;2.16;57.05
61018;BME280;48171;51.550;5.434;2023-02-28T10:18:03;103164.69;;;2.20;56.00
61018;BME280;48171;51.550;5.434;2023-02-28T10:20:33;103156.88;;;2.20;53.16
61018;BME280;48171;51.550;5.434;2023-02-28T10:23:12;103165.09;;;2.27;55.23
61018;BME280;48171;51.550;5.434;2023-02-28T10:25:39;103162.38;;;2.25;55.24
61018;BME280;48171;51.550;5.434;2023-02-28T10:28:15;103156.53;;;2.29;52.90
61018;BME280;48171;51.550;5.434;2023-02-28T10:30:44;103164.47;;;2.31;51.71
61018;BME280;48171;51.550;5.434;2023-02-28T10:33:32;103161.88;;;2.31;52.01
61018;BME280;48171;51.550;5.434;2023-02-28T10:35:59;103160.16;;;2.31;52.52
61018;BME280;48171;51.550;5.434;2023-02-28T10:38:33;103160.25;;;2.33;51.15
61018;BME280;48171;51.550;5.434;2023-02-28T10:41:14;103164.75;;;2.35;51.54
61018;BME280;48171;51.550;5.434;2023-02-28T10:43:41;103162.16;;;2.35;51.24
61018;BME280;48171;51.550;5.434;2023-02-28T10:48:39;103151.81;;;2.37;50.24
61018;BME280;48171;51.550;5.434;2023-02-28T10:51:10;103156.22;;;2.38;50.69
61018;BME280;48171;51.550;5.434;2023-02-28T10:53:47;103149.38;;;2.40;52.51
61018;BME280;48171;51.550;5.434;2023-02-28T10:56:18;103149.72;;;2.45;53.10
61018;BME280;48171;51.550;5.434;2023-02-28T11:03:43;103153.09;;;2.57;52.55
61018;BME280;48171;51.550;5.434;2023-02-28T11:06:29;103137.72;;;2.62;52.94
61018;BME280;48171;51.550;5.434;2023-02-28T11:08:58;103142.13;;;2.63;49.84
61018;BME280;48171;51.550;5.434;2023-02-28T11:11:26;103144.03;;;2.65;50.82
61018;BME280;48171;51.550;5.434;2023-02-28T11:13:54;103136.09;;;2.64;49.43
61018;BME280;48171;51.550;5.434;2023-02-28T11:16:21;103137.19;;;2.67;50.50
61018;BME280;48171;51.550;5.434;2023-02-28T11:18:48;103139.28;;;2.73;51.36
61018;BME280;48171;51.550;5.434;2023-02-28T11:21:28;103132.53;;;2.76;52.55
61018;BME280;48171;51.550;5.434;2023-02-28T11:24:04;103122.03;;;2.75;51.21
61018;BME280;48171;51.550;5.434;2023-02-28T11:26:39;103114.47;;;2.79;52.53
61018;BME280;48171;51.550;5.434;2023-02-28T11:29:25;103128.00;;;2.87;53.11
61018;BME280;48171;51.550;5.434;2023-02-28T11:32:15;103118.63;;;2.91;52.18
61018;BME280;48171;51.550;5.434;2023-02-28T11:34:42;103119.44;;;2.90;51.32
61018;BME280;48171;51.550;5.434;2023-02-28T11:37:13;103127.38;;;2.91;49.88
61018;BME280;48171;51.550;5.434;2023-02-28T11:39:38;103121.22;;;2.91;50.99
61018;BME280;48171;51.550;5.434;2023-02-28T11:45:14;103114.59;;;2.96;51.31
61018;BME280;48171;51.550;5.434;2023-02-28T11:48:01;103109.38;;;2.96;53.10
61018;BME280;48171;51.550;5.434;2023-02-28T11:53:33;103091.66;;;3.05;53.17
61018;BME280;48171;51.550;5.434;2023-02-28T11:56:15;103106.25;;;3.16;53.05
61018;BME280;48171;51.550;5.434;2023-02-28T12:04:21;103101.13;;;3.18;50.67
61018;BME280;48171;51.550;5.434;2023-02-28T12:06:58;103101.91;;;3.17;50.30
61018;BME280;48171;51.550;5.434;2023-02-28T12:09:46;103097.59;;;3.17;49.89
61018;BME280;48171;51.550;5.434;2023-02-28T12:15:35;103093.28;;;3.18;50.44
61018;BME280;48171;51.550;5.434;2023-02-28T12:20:41;103090.84;;;3.21;51.37
61018;BME280;48171;51.550;5.434;2023-02-28T12:28:57;103082.91;;;3.34;51.45
61018;BME280;48171;51.550;5.434;2023-02-28T12:31:30;103089.97;;;3.35;50.90
61018;BME280;48171;51.550;5.434;2023-02-28T12:34:06;103074.97;;;3.33;51.05
61018;BME280;48171;51.550;5.434;2023-02-28T12:36:35;103065.47;;;3.33;52.63
61018;BME280;48171;51.550;5.434;2023-02-28T12:39:30;103069.31;;;3.40;51.87
61018;BME280;48171;51.550;5.434;2023-02-28T12:42:05;103067.69;;;3.42;50.87
61018;BME280;48171;51.550;5.434;2023-02-28T12:44:37;103063.56;;;3.46;52.04
61018;BME280;48171;51.550;5.434;2023-02-28T12:47:14;103065.06;;;3.57;53.57
61018;BME280;48171;51.550;5.434;2023-02-28T12:49:52;103067.13;;;3.63;51.19
61018;BME280;48171;51.550;5.434;2023-02-28T12:52:25;103055.59;;;3.59;50.39
61018;BME280;48171;51.550;5.434;2023-02-28T12:55:01;103051.34;;;3.61;50.93
61018;BME280;48171;51.550;5.434;2023-02-28T13:00:35;103053.16;;;3.62;49.42
61018;BME280;48171;51.550;5.434;2023-02-28T13:03:33;103057.75;;;3.66;51.14
61018;BME280;48171;51.550;5.434;2023-02-28T13:11:39;103038.63;;;3.67;49.50
61018;BME280;48171;51.550;5.434;2023-02-28T13:14:18;103034.13;;;3.65;50.17
61018;BME280;48171;51.550;5.434;2023-02-28T13:19:37;103020.41;;;3.69;49.67
61018;BME280;48171;51.550;5.434;2023-02-28T13:22:03;103029.16;;;3.69;49.90
61018;BME280;48171;51.550;5.434;2023-02-28T13:24:38;103025.84;;;3.72;49.63
61018;BME280;48171;51.550;5.434;2023-02-28T13:29:32;103017.34;;;3.76;49.14
61018;BME280;48171;51.550;5.434;2023-02-28T13:34:27;103023.91;;;3.84;48.93
61018;BME280;48171;51.550;5.434;2023-02-28T13:37:32;103024.72;;;3.83;48.19
61018;BME280;48171;51.550;5.434;2023-02-28T13:40:22;103020.03;;;3.77;49.22
61018;BME280;48171;51.550;5.434;2023-02-28T13:42:51;103021.19;;;3.83;49.50
61018;BME280;48171;51.550;5.434;2023-02-28T13:45:28;103024.81;;;3.85;49.10
61018;BME280;48171;51.550;5.434;2023-02-28T13:48:25;103026.78;;;3.89;50.76
61018;BME280;48171;51.550;5.434;2023-02-28T13:50:51;103012.97;;;3.91;50.53
61018;BME280;48171;51.550;5.434;2023-02-28T13:53:40;103018.28;;;3.93;49.90
61018;BME280;48171;51.550;5.434;2023-02-28T13:56:27;103012.97;;;3.91;48.66
61018;BME280;48171;51.550;5.434;2023-02-28T13:59:12;103013.78;;;3.90;48.39
61018;BME280;48171;51.550;5.434;2023-02-28T14:01:56;103012.06;;;3.91;49.91
61018;BME280;48171;51.550;5.434;2023-02-28T14:06:55;102974.13;;;3.83;49.96
61018;BME280;48171;51.550;5.434;2023-02-28T14:09:54;103000.31;;;3.99;51.52
61018;BME280;48171;51.550;5.434;2023-02-28T14:12:51;103002.19;;;4.01;51.05
61018;BME280;48171;51.550;5.434;2023-02-28T14:18:02;102989.75;;;3.97;48.45
61018;BME280;48171;51.550;5.434;2023-02-28T14:20:32;103000.50;;;4.02;48.46
61018;BME280;48171;51.550;5.434;2023-02-28T14:23:10;102991.56;;;3.98;48.78
61018;BME280;48171;51.550;5.434;2023-02-28T14:25:54;103000.50;;;4.02;48.21
61018;BME280;48171;51.550;5.434;2023-02-28T14:31:19;103000.56;;;4.04;49.77
61018;BME280;48171;51.550;5.434;2023-02-28T14:36:44;102983.88;;;4.01;49.42
61018;BME280;48171;51.550;5.434;2023-02-28T14:39:15;102997.13;;;4.05;48.50
61018;BME280;48171;51.550;5.434;2023-02-28T14:41:43;102990.03;;;4.02;48.71
61018;BME280;48171;51.550;5.434;2023-02-28T14:44:19;102995.25;;;4.02;49.31
61018;BME280;48171;51.550;5.434;2023-02-28T14:46:48;102990.81;;;4.01;49.87